createdAt,value
2018-09-12T00:00:30.747Z,99376.30
2018-09-12T00:02:59.864Z,99373.88
2018-09-12T00:05:28.990Z,99377.94
2018-09-12T00:07:58.118Z,99375.50
2018-09-12T00:10:27.249Z,99384.41
2018-09-12T00:12:56.373Z,99380.12
2018-09-12T00:15:25.694Z,99385.77
2018-09-12T00:17:54.832Z,99384.66
2018-09-12T00:20:23.997Z,99388.46
2018-09-12T00:22:53.150Z,99386.30
2018-09-12T00:25:22.258Z,99389.27
2018-09-12T00:27:51.398Z,99390.63
2018-09-12T00:30:20.572Z,99386.58
2018-09-12T00:32:49.696Z,99382.80
2018-09-12T00:35:18.850Z,99384.97
2018-09-12T00:37:48.025Z,99388.45
2018-09-12T00:40:17.378Z,99395.19
2018-09-12T00:42:46.541Z,99398.14
2018-09-12T00:45:15.699Z,99396.54
2018-09-12T00:47:44.822Z,99396.54
2018-09-12T00:50:13.946Z,99389.52
2018-09-12T00:52:43.082Z,99395.44
2018-09-12T00:55:12.362Z,99387.89
2018-09-12T00:57:41.562Z,99392.75
2018-09-12T01:00:10.945Z,99394.38
2018-09-12T01:02:40.126Z,99387.36
2018-09-12T01:05:09.496Z,99389.48
2018-09-12T01:07:38.782Z,99390.30
2018-09-12T01:10:07.952Z,99388.13
2018-09-12T01:12:37.101Z,99394.86
2018-09-12T01:15:08.001Z,99392.69
2018-09-12T01:17:37.140Z,99388.36
2018-09-12T01:20:06.336Z,99390.52
2018-09-12T01:22:35.487Z,99395.61
2018-09-12T01:25:04.709Z,99396.95
2018-09-12T01:27:33.876Z,99398.51
2018-09-12T01:30:03.316Z,99401.45
2018-09-12T01:32:32.692Z,99399.55
2018-09-12T01:35:01.853Z,99398.47
2018-09-12T01:37:31.000Z,99393.33
2018-09-12T01:40:00.130Z,99396.02
2018-09-12T01:42:29.264Z,99394.41
2018-09-12T01:44:58.507Z,99387.91
2018-09-12T01:47:27.624Z,99394.34
2018-09-12T01:49:56.773Z,99387.59
2018-09-12T01:52:25.926Z,99391.33
2018-09-12T01:54:55.076Z,99391.86
2018-09-12T01:57:24.262Z,99385.94
2018-09-12T01:59:53.470Z,99389.97
2018-09-12T02:02:22.637Z,99390.25
2018-09-12T02:04:51.759Z,99386.98
2018-09-12T02:07:21.027Z,99384.55
2018-09-12T02:09:50.193Z,99386.91
2018-09-12T02:12:19.331Z,99383.87
2018-09-12T02:14:49.255Z,99377.07
2018-09-12T02:17:18.505Z,99376.22
2018-09-12T02:19:47.616Z,99381.59
2018-09-12T02:22:16.765Z,99384.02
2018-09-12T02:24:45.900Z,99378.64
2018-09-12T02:27:15.024Z,99379.72
2018-09-12T02:29:44.201Z,99380.53
2018-09-12T02:32:13.334Z,99380.25
2018-09-12T02:34:42.521Z,99377.02
2018-09-12T02:37:12.385Z,99370.28
2018-09-12T02:39:41.929Z,99377.28
2018-09-12T02:42:11.118Z,99378.34
2018-09-12T02:44:40.328Z,99381.02
2018-09-12T02:47:14.699Z,99379.34
2018-09-12T02:49:44.629Z,99376.31
2018-09-12T02:52:13.858Z,99381.34
2018-09-12T02:54:43.133Z,99378.11
2018-09-12T02:57:12.414Z,99383.45
2018-09-12T02:59:41.661Z,99382.09
2018-09-12T03:02:11.284Z,99381.80
2018-09-12T03:04:40.530Z,99388.25
2018-09-12T03:07:09.772Z,99389.30
2018-09-12T03:09:38.960Z,99386.28
2018-09-12T03:12:08.090Z,99386.80
2018-09-12T03:14:37.242Z,99389.18
2018-09-12T03:17:06.456Z,99393.69
2018-09-12T03:19:35.705Z,99388.59
2018-09-12T03:22:05.012Z,99390.24
2018-09-12T03:24:34.428Z,99389.47
2018-09-12T03:27:03.656Z,99388.44
2018-09-12T03:29:32.868Z,99385.50
2018-09-12T03:32:02.348Z,99377.75
2018-09-12T03:34:31.489Z,99370.80
2018-09-12T03:37:01.051Z,99376.42
2018-09-12T03:39:30.182Z,99366.48
2018-09-12T03:41:59.384Z,99358.93
2018-09-12T03:44:28.505Z,99364.84
2018-09-12T03:46:57.657Z,99364.84
2018-09-12T03:49:26.846Z,99356.52
2018-09-12T03:51:55.992Z,99362.67
2018-09-12T03:54:25.128Z,99360.23
2018-09-12T03:56:54.514Z,99363.41
2018-09-12T03:59:23.784Z,99365.77
2018-09-12T04:01:53.054Z,99365.74
2018-09-12T04:04:22.261Z,99362.52
2018-09-12T04:06:51.499Z,99362.44
2018-09-12T04:09:20.676Z,99359.91
2018-09-12T04:11:49.923Z,99362.21
2018-09-12T04:14:19.088Z,99366.95
2018-09-12T04:16:48.325Z,99362.63
2018-09-12T04:19:17.421Z,99362.13
2018-09-12T04:21:46.641Z,99368.34
2018-09-12T04:24:15.907Z,99353.87
2018-09-12T04:26:45.202Z,99353.61
2018-09-12T04:29:14.398Z,99358.76
2018-09-12T04:31:43.694Z,99363.33
2018-09-12T04:34:12.949Z,99362.02
2018-09-12T04:36:42.113Z,99361.25
2018-09-12T04:39:12.648Z,99361.25
2018-09-12T04:41:41.851Z,99355.80
2018-09-12T04:44:11.044Z,99354.16
2018-09-12T04:46:40.249Z,99355.98
2018-09-12T04:49:09.663Z,99361.88
2018-09-12T04:51:38.870Z,99359.45
2018-09-12T04:54:08.239Z,99364.81
2018-09-12T04:56:37.373Z,99370.77
2018-09-12T04:59:06.613Z,99358.95
2018-09-12T05:01:35.829Z,99358.95
2018-09-12T05:04:05.118Z,99361.68
2018-09-12T05:06:34.288Z,99360.31
2018-09-12T05:09:03.916Z,99356.53
2018-09-12T05:11:33.140Z,99358.90
2018-09-12T05:14:02.349Z,99356.84
2018-09-12T05:16:31.633Z,99354.20
2018-09-12T05:19:00.856Z,99355.91
2018-09-12T05:21:30.123Z,99354.92
2018-09-12T05:23:59.371Z,99346.66
2018-09-12T05:26:28.577Z,99344.84
2018-09-12T05:28:57.828Z,99349.24
2018-09-12T05:31:27.029Z,99346.39
2018-09-12T05:33:56.217Z,99340.55
2018-09-12T05:36:25.491Z,99342.73
2018-09-12T05:38:54.669Z,99346.59
2018-09-12T05:41:23.914Z,99340.45
2018-09-12T05:43:53.067Z,99338.41
2018-09-12T05:46:22.249Z,99334.19
2018-09-12T05:48:51.453Z,99334.52
2018-09-12T05:51:20.853Z,99335.09
2018-09-12T05:53:50.042Z,99330.55
2018-09-12T05:56:19.236Z,99325.47
2018-09-12T05:58:48.481Z,99322.28
2018-09-12T06:01:17.615Z,99317.21
2018-09-12T06:03:46.744Z,99311.09
2018-09-12T06:06:16.042Z,99320.27
2018-09-12T06:08:45.240Z,99312.47
2018-09-12T06:11:14.511Z,99311.40
2018-09-12T06:13:43.742Z,99311.92
2018-09-12T06:16:12.931Z,99303.30
2018-09-12T06:18:42.306Z,99304.65
2018-09-12T06:21:11.482Z,99311.64
2018-09-12T06:23:40.653Z,99310.31
2018-09-12T06:26:10.170Z,99308.67
2018-09-12T06:28:40.944Z,99304.91
2018-09-12T06:31:11.844Z,99301.94
2018-09-12T06:33:42.021Z,99304.36
2018-09-12T06:36:11.185Z,99305.43
2018-09-12T06:38:40.358Z,99298.39
2018-09-12T06:41:09.773Z,99307.53
2018-09-12T06:43:38.958Z,99295.08
2018-09-12T06:46:08.156Z,99294.81
2018-09-12T06:48:37.411Z,99293.19
2018-09-12T06:51:06.682Z,99288.31
2018-09-12T06:53:35.821Z,99287.47
2018-09-12T06:56:05.062Z,99289.02
2018-09-12T06:58:34.301Z,99288.94
2018-09-12T07:01:03.640Z,99293.47
2018-09-12T07:03:33.393Z,99295.03
2018-09-12T07:06:02.581Z,99301.16
2018-09-12T07:08:31.796Z,99295.95
2018-09-12T07:11:01.004Z,99287.16
2018-09-12T07:13:30.376Z,99288.38
2018-09-12T07:15:59.668Z,99283.42
2018-09-12T07:18:28.952Z,99282.56
2018-09-12T07:20:58.104Z,99281.96
2018-09-12T07:23:27.369Z,99283.23
2018-09-12T07:25:56.585Z,99276.11
2018-09-12T07:28:25.820Z,99283.80
2018-09-12T07:30:54.984Z,99283.30
2018-09-12T07:33:24.233Z,99285.70
2018-09-12T07:35:53.442Z,99287.18
2018-09-12T07:38:22.734Z,99291.36
2018-09-12T07:40:51.936Z,99292.13
2018-09-12T07:43:21.213Z,99287.90
2018-09-12T07:45:50.604Z,99277.85
2018-09-12T07:48:19.918Z,99275.74
2018-09-12T07:50:50.241Z,99280.44
2018-09-12T07:53:20.047Z,99282.60
2018-09-12T07:55:49.390Z,99285.48
2018-09-12T07:58:18.561Z,99286.11
2018-09-12T08:00:47.905Z,99279.42
2018-09-12T08:03:17.098Z,99279.58
2018-09-12T08:05:46.340Z,99277.41
2018-09-12T08:08:15.642Z,99276.02
2018-09-12T08:10:44.872Z,99278.41
2018-09-12T08:13:14.179Z,99270.35
2018-09-12T08:15:43.769Z,99272.41
2018-09-12T08:18:14.726Z,99269.96
2018-09-12T08:20:44.018Z,99267.82
2018-09-12T08:23:13.411Z,99269.01
2018-09-12T08:25:42.701Z,99271.14
2018-09-12T08:28:12.529Z,99262.04
2018-09-12T08:30:44.658Z,99263.66
2018-09-12T08:33:13.975Z,99257.00
2018-09-12T08:35:43.186Z,99256.18
2018-09-12T08:38:12.413Z,99255.88
2018-09-12T08:40:41.673Z,99248.91
2018-09-12T08:43:10.958Z,99226.91
2018-09-12T08:45:40.328Z,99244.83
2018-09-12T08:48:09.587Z,99248.55
2018-09-12T08:50:38.780Z,99247.14
2018-09-12T08:53:08.892Z,99249.36
2018-09-12T08:55:38.214Z,99239.31
2018-09-12T08:58:07.493Z,99233.08
2018-09-12T09:00:36.801Z,99234.92
2018-09-12T09:03:07.425Z,99236.27
2018-09-12T09:05:36.658Z,99231.77
2018-09-12T09:08:05.848Z,99227.20
2018-09-12T09:10:35.170Z,99226.56
2018-09-12T09:13:04.321Z,99230.70
2018-09-12T09:15:33.498Z,99228.91
2018-09-12T09:18:02.970Z,99227.86
2018-09-12T09:20:32.290Z,99225.02
2018-09-12T09:23:01.502Z,99220.42
2018-09-12T09:25:31.435Z,99223.30
2018-09-12T09:28:00.786Z,99216.89
2018-09-12T09:30:31.894Z,99215.66
2018-09-12T09:33:01.173Z,99209.70
2018-09-12T09:35:31.265Z,99206.59
2018-09-12T09:38:01.076Z,99203.95
2018-09-12T09:40:30.312Z,99190.77
2018-09-12T09:42:59.578Z,99193.71
2018-09-12T09:45:28.922Z,99186.68
2018-09-12T09:47:58.275Z,99186.35
2018-09-12T09:50:27.478Z,99184.28
2018-09-12T09:52:56.630Z,99185.41
2018-09-12T09:55:25.862Z,99184.03
2018-09-12T09:57:55.329Z,99183.14
2018-09-12T10:00:29.962Z,99170.80
2018-09-12T10:03:04.571Z,99177.98
2018-09-12T10:05:39.060Z,99175.25
2018-09-12T10:09:11.964Z,99171.92
2018-09-12T10:11:41.319Z,99169.75
2018-09-12T10:14:10.636Z,99172.69
2018-09-12T10:16:39.913Z,99182.26
2018-09-12T10:19:09.349Z,99168.58
2018-09-12T10:21:38.619Z,99161.76
2018-09-12T10:24:07.846Z,99159.34
2018-09-12T10:26:37.130Z,99157.70
2018-09-12T10:29:06.578Z,99151.53
2018-09-12T10:31:35.810Z,99158.29
2018-09-12T10:34:05.116Z,99152.64
2018-09-12T10:36:34.359Z,99149.53
2018-09-12T10:39:03.698Z,99144.14
2018-09-12T10:41:33.101Z,99141.85
2018-09-12T10:44:02.417Z,99144.92
2018-09-12T10:46:31.594Z,99129.81
2018-09-12T10:49:01.406Z,99127.41
2018-09-12T10:51:30.516Z,99129.38
2018-09-12T10:53:59.952Z,99127.00
2018-09-12T10:56:29.537Z,99127.91
2018-09-12T10:58:58.964Z,99119.98
2018-09-12T11:01:28.101Z,99114.28
2018-09-12T11:03:57.399Z,99116.69
2018-09-12T11:06:26.675Z,99113.59
2018-09-12T11:08:55.998Z,99103.16
2018-09-12T11:11:25.268Z,99102.27
2018-09-12T11:13:54.496Z,99100.02
2018-09-12T11:16:23.732Z,99099.22
2018-09-12T11:18:53.113Z,99098.49
2018-09-12T11:21:22.441Z,99098.19
2018-09-12T11:23:51.815Z,99093.33
2018-09-12T11:26:21.161Z,99098.45
2018-09-12T11:28:50.815Z,99080.55
2018-09-12T11:31:19.999Z,99082.82
2018-09-12T11:33:49.339Z,99081.26
2018-09-12T11:36:19.554Z,99073.95
2018-09-12T11:38:48.809Z,99071.16
2018-09-12T11:41:18.152Z,99070.77
2018-09-12T11:43:47.357Z,99059.95
2018-09-12T11:46:16.555Z,99061.80
2018-09-12T11:48:45.852Z,99059.86
2018-09-12T11:51:15.096Z,99062.52
2018-09-12T11:53:44.370Z,99065.28
2018-09-12T11:56:13.675Z,99062.27
2018-09-12T11:58:42.922Z,99071.75
2018-09-12T12:01:12.146Z,99058.72
2018-09-12T12:03:41.425Z,99061.48
2018-09-12T12:06:10.938Z,99047.91
2018-09-12T12:08:40.269Z,99040.10
2018-09-12T12:11:10.141Z,99047.97
2018-09-12T12:13:39.314Z,99041.91
2018-09-12T12:16:08.551Z,99036.14
2018-09-12T12:18:37.754Z,99034.76
2018-09-12T12:21:07.186Z,99038.39
2018-09-12T12:23:36.442Z,99039.63
2018-09-12T12:26:06.021Z,99037.98
2018-09-12T12:28:35.249Z,99031.01
2018-09-12T12:31:04.590Z,99037.21
2018-09-12T12:33:33.793Z,99031.91
2018-09-12T12:36:03.181Z,99026.08
2018-09-12T12:38:32.583Z,99015.80
2018-09-12T12:41:01.889Z,99015.40
2018-09-12T12:43:31.217Z,99009.47
2018-09-12T12:46:00.516Z,98992.69
2018-09-12T12:48:29.693Z,99001.55
2018-09-12T12:50:58.924Z,99000.16
2018-09-12T12:53:28.053Z,98994.75
2018-09-12T12:55:57.453Z,98991.12
2018-09-12T12:58:26.762Z,98980.04
2018-09-12T13:00:56.444Z,98978.05
2018-09-12T13:03:25.716Z,98988.96
2018-09-12T13:05:54.992Z,98977.88
2018-09-12T13:08:24.273Z,98972.28
2018-09-12T13:10:53.539Z,98968.05
2018-09-12T13:13:22.740Z,98966.08
2018-09-12T13:15:52.320Z,98966.53
2018-09-12T13:18:22.189Z,98981.41
2018-09-12T13:20:51.597Z,98974.78
2018-09-12T13:23:20.823Z,98969.05
2018-09-12T13:25:50.014Z,98970.74
2018-09-12T13:28:22.380Z,98964.95
2018-09-12T13:30:51.633Z,98968.55
2018-09-12T13:33:20.967Z,98977.13
2018-09-12T13:35:50.204Z,98968.87
2018-09-12T13:38:19.487Z,98971.54
2018-09-12T13:40:49.125Z,98964.25
2018-09-12T13:43:18.650Z,98955.07
2018-09-12T13:45:47.960Z,98953.16
2018-09-12T13:48:18.838Z,98952.66
2018-09-12T13:50:48.003Z,98948.05
2018-09-12T13:53:17.237Z,98942.20
2018-09-12T13:55:46.593Z,98942.42
2018-09-12T13:58:15.842Z,98935.58
2018-09-12T14:00:47.505Z,98927.16
2018-09-12T14:03:16.735Z,98924.45
2018-09-12T14:05:45.993Z,98920.72
2018-09-12T14:08:15.318Z,98919.80
2018-09-12T14:10:45.470Z,98919.52
2018-09-12T14:13:14.681Z,98922.33
2018-09-12T14:15:43.989Z,98928.87
2018-09-12T14:18:13.212Z,98924.17
2018-09-12T14:20:42.397Z,98911.31
2018-09-12T14:23:11.707Z,98911.48
2018-09-12T14:25:40.929Z,98910.73
2018-09-12T14:28:10.259Z,98900.67
2018-09-12T14:30:39.821Z,98896.75
2018-09-12T14:33:09.212Z,98891.87
2018-09-12T14:35:38.728Z,98897.20
2018-09-12T14:38:08.021Z,98898.80
2018-09-12T14:40:37.333Z,98897.13
2018-09-12T14:43:06.837Z,98898.31
2018-09-12T14:45:36.054Z,98893.73
2018-09-12T14:48:05.305Z,98888.78
2018-09-12T14:50:34.559Z,98884.98
2018-09-12T14:53:03.729Z,98883.84
2018-09-12T14:55:32.884Z,98889.93
2018-09-12T14:58:02.120Z,98880.63
2018-09-12T15:00:31.250Z,98885.91
2018-09-12T15:03:00.957Z,98875.00
2018-09-12T15:05:30.371Z,98876.86
2018-09-12T15:07:59.613Z,98875.02
2018-09-12T15:10:28.808Z,98872.58
2018-09-12T15:12:58.268Z,98869.41
2018-09-12T15:15:27.615Z,98870.66
2018-09-12T15:17:56.921Z,98866.22
2018-09-12T15:20:26.408Z,98862.19
2018-09-12T15:22:55.613Z,98857.42
2018-09-12T15:25:24.833Z,98861.34
2018-09-12T15:27:54.042Z,98853.19
2018-09-12T15:30:24.243Z,98850.09
2018-09-12T15:32:53.565Z,98841.10
2018-09-12T15:35:22.794Z,98845.16
2018-09-12T15:37:52.182Z,98841.84
2018-09-12T15:40:21.440Z,98842.88
2018-09-12T15:42:50.659Z,98840.22
2018-09-12T15:45:20.063Z,98837.72
2018-09-12T15:47:49.311Z,98845.56
2018-09-12T15:50:18.532Z,98843.77
2018-09-12T15:52:47.836Z,98837.20
2018-09-12T15:55:17.033Z,98841.15
2018-09-12T15:57:46.204Z,98832.26
2018-09-12T16:00:15.508Z,98837.11
2018-09-12T16:02:44.741Z,98836.77
2018-09-12T16:05:14.718Z,98840.96
2018-09-12T16:07:44.123Z,98839.23
2018-09-12T16:10:13.957Z,98842.20
2018-09-12T16:12:43.287Z,98840.13
2018-09-12T16:15:12.660Z,98837.45
2018-09-12T16:17:41.830Z,98835.89
2018-09-12T16:20:11.177Z,98836.56
2018-09-12T16:22:40.384Z,98837.06
2018-09-12T16:25:10.091Z,98837.75
2018-09-12T16:27:39.997Z,98836.86
2018-09-12T16:30:09.608Z,98843.34
2018-09-12T16:32:38.881Z,98839.53
2018-09-12T16:35:08.142Z,98843.17
2018-09-12T16:37:37.876Z,98845.66
2018-09-12T16:40:07.284Z,98842.30
2018-09-12T16:42:36.473Z,98845.59
2018-09-12T16:45:07.277Z,98841.78
2018-09-12T16:47:36.558Z,98842.49
2018-09-12T16:50:06.268Z,98845.53
2018-09-12T16:52:35.551Z,98841.28
2018-09-12T16:55:05.499Z,98847.05
2018-09-12T16:57:34.806Z,98838.67
2018-09-12T17:00:04.074Z,98842.25
2018-09-12T17:02:33.275Z,98838.83
2018-09-12T17:05:02.869Z,98834.06
2018-09-12T17:07:32.233Z,98825.78
2018-09-12T17:10:01.523Z,98821.95
2018-09-12T17:12:30.668Z,98823.33
2018-09-12T17:14:59.934Z,98820.64
2018-09-12T17:17:29.159Z,98831.32
2018-09-12T17:19:58.366Z,98824.52
2018-09-12T17:22:27.650Z,98834.19
2018-09-12T17:24:57.332Z,98838.85
2018-09-12T17:27:27.299Z,98827.16
2018-09-12T17:29:57.245Z,98827.37
2018-09-12T17:32:26.557Z,98825.97
2018-09-12T17:34:56.580Z,98824.91
2018-09-12T17:37:25.939Z,98826.77
2018-09-12T17:39:55.201Z,98828.74
2018-09-12T17:42:24.448Z,98836.11
2018-09-12T17:44:53.970Z,98836.08
2018-09-12T17:47:23.302Z,98831.55
2018-09-12T17:49:52.563Z,98834.17
2018-09-12T17:52:21.837Z,98830.88
2018-09-12T17:54:51.184Z,98834.39
2018-09-12T17:57:20.476Z,98837.95
2018-09-12T17:59:49.785Z,98833.13
2018-09-12T18:02:19.053Z,98839.55
2018-09-12T18:04:48.802Z,98835.41
2018-09-12T18:07:18.554Z,98836.88
2018-09-12T18:09:47.755Z,98838.00
2018-09-12T18:12:17.145Z,98836.83
2018-09-12T18:14:46.465Z,98837.48
2018-09-12T18:17:15.910Z,98835.66
2018-09-12T18:19:45.208Z,98831.25
2018-09-12T18:22:14.700Z,98833.19
2018-09-12T18:24:43.977Z,98829.63
2018-09-12T18:27:13.149Z,98842.66
2018-09-12T18:29:42.474Z,98845.03
2018-09-12T18:32:11.694Z,98838.18
2018-09-12T18:34:40.840Z,98833.67
2018-09-12T18:37:11.131Z,98844.08
2018-09-12T18:39:40.317Z,98847.98
2018-09-12T18:42:09.840Z,98848.03
2018-09-12T18:44:39.444Z,98843.63
2018-09-12T18:47:08.745Z,98847.05
2018-09-12T18:49:37.967Z,98848.64
2018-09-12T18:52:07.146Z,98839.92
2018-09-12T18:54:36.295Z,98852.00
2018-09-12T18:57:06.156Z,98846.45
2018-09-12T18:59:35.351Z,98856.72
2018-09-12T19:02:04.474Z,98855.88
2018-09-12T19:04:33.621Z,98856.50
2018-09-12T19:07:02.950Z,98857.12
2018-09-12T19:09:32.030Z,98804.89
2018-09-12T19:12:01.184Z,98860.34
2018-09-12T19:14:30.445Z,98857.28
2018-09-12T19:16:59.635Z,98867.75
2018-09-12T19:19:28.801Z,98866.60
2018-09-12T19:21:58.014Z,98869.19
2018-09-12T19:24:27.220Z,98865.80
2018-09-12T19:26:56.409Z,98870.00
2018-09-12T19:29:25.609Z,98870.64
2018-09-12T19:31:54.905Z,98868.55
2018-09-12T19:34:24.132Z,98867.31
2018-09-12T19:36:53.340Z,98876.88
2018-09-12T19:39:22.531Z,98872.92
2018-09-12T19:41:51.879Z,98877.90
2018-09-12T19:44:21.095Z,98877.95
2018-09-12T19:46:50.275Z,98875.14
2018-09-12T19:49:19.454Z,98869.88
2018-09-12T19:51:48.697Z,98874.98
2018-09-12T19:54:17.891Z,98879.19
2018-09-12T19:56:47.115Z,98878.47
2018-09-12T19:59:16.498Z,98883.69
2018-09-12T20:01:45.716Z,98887.55
2018-09-12T20:04:14.852Z,98886.97
2018-09-12T20:06:44.015Z,98890.88
2018-09-12T20:09:13.169Z,98883.44
2018-09-12T20:11:42.379Z,98879.22
2018-09-12T20:14:11.726Z,98874.83
2018-09-12T20:16:40.886Z,98882.73
2018-09-12T20:19:10.809Z,98885.55
2018-09-12T20:21:40.064Z,98890.80
2018-09-12T20:24:09.461Z,98887.59
2018-09-12T20:26:38.696Z,98891.44
2018-09-12T20:29:08.231Z,98889.06
2018-09-12T20:31:37.405Z,98898.63
2018-09-12T20:34:06.739Z,98901.92
2018-09-12T20:36:35.914Z,98902.83
2018-09-12T20:39:08.471Z,98898.77
2018-09-12T20:41:37.642Z,98888.50
2018-09-12T20:44:06.929Z,98886.88
2018-09-12T20:46:36.123Z,98885.62
2018-09-12T20:49:05.324Z,98888.91
2018-09-12T20:51:34.523Z,98885.66
2018-09-12T20:54:03.740Z,98890.22
2018-09-12T20:56:32.949Z,98888.37
2018-09-12T20:59:02.102Z,98883.86
2018-09-12T21:01:31.287Z,98884.45
2018-09-12T21:04:00.460Z,98894.74
2018-09-12T21:06:31.057Z,98895.37
2018-09-12T21:09:00.225Z,98898.71
2018-09-12T21:11:29.720Z,98896.64
2018-09-12T21:13:58.870Z,98901.87
2018-09-12T21:16:28.102Z,98899.80
2018-09-12T21:18:58.117Z,98890.41
2018-09-12T21:21:27.293Z,98895.33
2018-09-12T21:23:56.465Z,98901.05
2018-09-12T21:26:25.868Z,98895.69
2018-09-12T21:28:55.149Z,98886.31
2018-09-12T21:31:24.334Z,98886.39
2018-09-12T21:33:53.869Z,98885.66
2018-09-12T21:36:23.389Z,98881.37
2018-09-12T21:38:52.747Z,98878.98
2018-09-12T21:41:22.025Z,98875.74
2018-09-12T21:43:51.314Z,98876.83
2018-09-12T21:46:20.437Z,98872.51
2018-09-12T21:48:49.979Z,98872.00
2018-09-12T21:51:19.123Z,98870.69
2018-09-12T21:53:48.288Z,98878.41
2018-09-12T21:56:17.701Z,98879.03
2018-09-12T21:58:46.877Z,98874.08
2018-09-12T22:01:19.656Z,98880.36
2018-09-12T22:03:48.792Z,98871.83
2018-09-12T22:06:17.977Z,98875.88
2018-09-12T22:08:47.176Z,98874.27
2018-09-12T22:11:16.352Z,98870.25
2018-09-12T22:13:45.504Z,98864.87
2018-09-12T22:16:14.700Z,98870.86
2018-09-12T22:18:43.817Z,98869.03
2018-09-12T22:21:13.049Z,98873.14
2018-09-12T22:23:42.318Z,98871.59
2018-09-12T22:26:11.554Z,98871.25
2018-09-12T22:28:41.599Z,98863.73
2018-09-12T22:31:11.545Z,98858.19
2018-09-12T22:33:40.679Z,98866.02
2018-09-12T22:36:09.853Z,98858.25
2018-09-12T22:38:39.018Z,98864.19
2018-09-12T22:41:08.412Z,98870.99
2018-09-12T22:43:37.628Z,98873.23
2018-09-12T22:46:06.853Z,98872.70
2018-09-12T22:48:36.009Z,98870.54
2018-09-12T22:51:09.285Z,98869.67
2018-09-12T22:53:39.198Z,98872.88
2018-09-12T22:56:08.457Z,98877.52
2018-09-12T22:58:37.632Z,98875.39
2018-09-12T23:01:06.836Z,98872.13
2018-09-12T23:03:35.992Z,98869.70
2018-09-12T23:06:05.237Z,98865.39
2018-09-12T23:08:34.793Z,98867.33
2018-09-12T23:11:03.986Z,98873.59
2018-09-12T23:13:33.200Z,98871.73
2018-09-12T23:16:02.354Z,98866.36
2018-09-12T23:18:31.494Z,98865.34
2018-09-12T23:21:00.653Z,98870.22
2018-09-12T23:23:29.778Z,98875.04
2018-09-12T23:25:58.969Z,98877.25
2018-09-12T23:28:28.261Z,98877.81
2018-09-12T23:30:57.485Z,98875.70
2018-09-12T23:33:26.829Z,98879.03
2018-09-12T23:35:56.057Z,98885.06
2018-09-12T23:38:26.207Z,98885.07
2018-09-12T23:40:55.405Z,98880.25
2018-09-12T23:43:24.635Z,98882.64
2018-09-12T23:45:53.868Z,98884.78
2018-09-12T23:48:23.051Z,98881.25
2018-09-12T23:50:52.224Z,98881.25
2018-09-12T23:53:21.404Z,98872.93
2018-09-12T23:55:50.576Z,98879.12
2018-09-12T23:58:19.749Z,98875.94
